Date,TemperatureHighF,TemperatureAvgF,TemperatureLowF,DewpointHighF,DewpointAvgF,DewpointLowF,HumidityHigh,HumidityAvg,HumidityLow,PressureMaxIn,PressureMinIn,WindSpeedMaxMPH,WindSpeedAvgMPH,GustSpeedMaxMPH,PrecipitationSumIn
2012-1-1,64.2,46.0,35.5,47.7,33.3,21.4,80,62,47,30.05,29.78,27,4,27,0.00
2012-1-2,36.0,29.1,15.7,21.4,11.6,4.8,76,49,29,30.06,29.86,33,8,33,0.00
2012-1-3,20.3,16.3,13.6,9.6,7.0,4.7,78,66,56,30.30,30.03,28,7,28,0.00
2012-1-4,45.4,28.4,12.4,22.8,9.4,3.0,76,49,19,30.34,29.95,25,2,25,0.00
2012-1-5,51.4,40.6,32.8,27.4,20.9,11.9,69,48,23,30.05,29.92,24,4,24,0.08
2012-1-6,62.4,45.1,29.0,25.4,21.1,17.9,70,44,18,30.08,29.90,10,0,10,0.01
2012-1-7,58.9,46.9,35.0,46.1,38.3,22.3,90,73,55,30.00,29.84,16,1,16,0.01
2012-1-8,50.1,45.2,39.3,47.8,43.4,37.5,97,93,83,30.13,29.98,5,0,5,0.00
2012-1-9,45.1,45.1,45.1,44.3,44.3,44.3,97,97,97,30.10,30.10,0,0,0,0.00
2012-1-10,45.1,45.1,45.1,44.3,44.3,44.3,97,97,97,30.10,30.10,0,0,0,0.00
2012-1-14,39.9,35.3,29.5,24.0,23.1,22.1,75,61,52,30.62,30.50,3,1,10,0.00
2012-1-15,43.5,40.8,37.0,28.7,23.6,20.0,68,51,39,30.47,30.39,6,1,13,0.00
2012-1-16,39.8,39.8,39.8,28.2,28.2,28.2,63,63,63,30.38,30.37,1,1,7,0.00
2012-1-17,59.2,49.0,39.8,49.2,42.4,28.6,94,78,64,30.36,29.91,8,3,19,0.27
2012-1-18,47.4,34.4,27.0,44.3,25.3,20.5,89,70,53,30.18,29.93,7,3,19,0.00
2012-1-19,41.1,30.5,22.2,24.4,21.8,18.9,89,72,46,30.28,30.13,2,0,7,0.00
2012-1-20,53.6,40.0,28.5,40.4,34.7,22.8,94,82,57,30.22,30.05,6,0,7,0.15
2012-1-21,50.1,45.5,40.2,49.0,44.3,38.6,96,96,94,30.07,29.90,16,0,16,0.21
2012-1-22,45.7,38.9,35.0,44.3,37.8,34.0,96,96,95,30.34,30.12,6,1,10,0.01
2012-1-23,47.4,40.1,33.5,46.6,39.1,32.5,97,96,96,30.28,30.03,6,1,8,0.39
2012-1-24,58.6,43.8,34.1,42.7,31.6,15.6,97,69,21,30.33,30.08,10,1,14,0.00
2012-1-25,61.2,46.2,32.5,38.7,30.6,22.3,82,57,29,30.39,30.18,7,0,7,0.00
2012-1-26,61.2,54.1,46.8,55.0,48.4,36.6,92,81,60,30.18,29.66,19,1,19,0.32
2012-1-27,57.2,46.3,33.5,54.0,39.4,29.2,89,77,65,30.12,29.59,20,4,20,0.03
2012-1-28,53.2,37.8,29.4,36.3,28.4,12.6,94,71,39,30.31,30.09,19,3,19,0.00
2012-1-29,45.7,35.6,22.4,18.8,11.1,0.3,75,40,18,30.45,30.26,20,4,20,0.00
2012-1-30,55.0,40.7,27.6,25.7,18.7,12.5,67,43,23,30.49,30.31,13,1,13,0.00
2012-1-31,62.4,44.9,30.4,29.6,25.1,20.9,70,49,27,30.49,30.29,11,0,11,0.00
2012-2-1,57.5,47.7,40.1,48.6,39.9,26.5,94,75,56,30.29,30.08,8,0,8,0.37
2012-2-2,57.3,49.3,36.0,47.2,40.1,32.1,95,73,45,30.37,30.07,18,3,18,0.00
2012-2-3,55.0,42.4,32.5,32.2,27.3,20.2,88,59,26,30.51,30.37,12,1,12,0.00
2012-2-4,53.3,46.0,38.6,50.0,42.2,29.0,95,87,66,30.40,30.07,7,0,7,0.20
2012-2-5,59.9,51.8,40.3,51.8,45.3,37.3,96,80,55,30.17,29.98,14,2,14,0.03
2012-2-6,50.5,39.5,33.4,41.9,35.4,31.1,96,86,61,30.31,30.15,9,1,9,0.01
2012-2-7,55.0,39.4,29.1,33.3,26.9,16.5,93,66,22,30.26,30.14,6,0,8,0.00
2012-2-8,47.4,37.7,30.9,33.6,28.4,23.9,78,69,52,30.27,30.14,13,2,19,0.00
2012-2-9,46.7,36.8,28.2,28.4,25.7,22.2,86,66,43,30.34,30.20,10,1,17,0.00
2012-2-10,45.5,36.1,27.9,32.0,28.6,25.3,92,75,54,30.24,29.92,8,0,8,0.00
2012-2-11,37.0,26.7,13.8,29.8,18.6,2.1,85,71,52,30.27,29.80,30,6,30,0.01
2012-2-12,32.9,21.0,12.3,11.8,6.7,0.9,66,54,39,30.41,30.26,22,5,22,2.03
2012-2-13,45.8,34.0,17.8,17.3,12.9,6.1,73,46,26,30.39,29.99,12,0,12,0.00
2012-2-14,48.0,41.6,34.1,39.0,31.0,6.6,81,68,27,30.11,29.90,10,2,10,0.00
2012-2-15,47.6,41.4,35.6,38.7,35.8,32.9,90,81,71,30.18,30.02,7,1,7,0.00
2012-2-16,57.2,49.5,43.2,48.4,41.4,30.4,94,74,54,30.27,30.01,13,1,13,0.02
2012-2-17,59.3,47.2,37.2,41.3,31.6,20.0,91,60,23,30.16,30.06,13,1,13,0.00
2012-2-18,59.0,45.6,35.6,47.2,34.1,28.6,83,66,36,30.16,29.90,7,0,7,0.00
2012-2-19,47.4,37.9,31.6,43.0,35.9,29.8,95,92,75,30.02,29.74,22,4,22,0.27
2012-2-20,49.8,35.7,27.0,31.2,26.5,17.7,93,72,37,30.38,30.02,8,0,8,0.04
2012-2-21,51.6,39.5,28.8,36.3,30.4,22.2,82,70,55,30.34,29.99,28,2,28,0.00
2012-2-22,62.3,51.2,37.6,46.4,34.7,22.6,89,55,36,30.01,29.60,26,2,26,26.62
2012-2-23,68.3,55.3,41.5,52.8,46.3,39.7,96,75,45,29.70,29.56,20,2,20,98.98
2012-2-24,68.8,61.5,58.0,56.3,53.6,50.6,89,76,53,29.60,29.51,19,3,19,1.04
2012-2-29,55.7,54.7,49.5,52.2,50.7,40.1,88,86,70,30.12,29.61,13,2,22,2.15
2012-3-1,69.4,59.0,42.9,31.5,26.5,19.4,57,32,17,29.93,29.81,10,2,14,2.15
2012-3-2,59.5,52.8,42.8,56.4,41.5,23.8,93,68,33,29.97,29.68,11,1,11,29.98
2012-3-3,58.0,47.7,40.6,56.0,33.3,10.1,94,62,23,29.86,29.60,17,3,17,0.43
2012-3-4,41.2,35.1,27.8,28.2,19.5,15.1,72,53,38,30.08,29.75,24,5,24,0.00
2012-3-5,40.6,35.0,27.9,31.5,20.3,11.1,85,56,34,30.50,29.93,30,5,30,0.01
2012-3-6,53.9,37.6,23.8,24.0,18.7,14.3,71,49,26,30.61,30.47,9,2,9,0.00
2012-3-7,56.5,47.6,33.4,44.8,36.3,20.6,84,65,55,30.58,30.35,16,2,16,0.00
2012-3-8,60.4,55.1,50.1,51.5,47.3,44.7,87,76,58,30.35,30.04,16,1,16,0.23
2012-3-9,53.8,46.1,34.4,50.3,36.1,22.9,93,71,39,30.34,30.02,20,3,20,0.11
2012-3-10,56.9,42.9,28.8,26.3,21.3,12.3,79,47,18,30.48,30.31,8,1,11,0.00
2012-3-11,60.5,45.4,30.7,35.1,27.8,21.9,84,54,26,30.54,30.35,8,1,8,0.00
2012-3-12,58.4,52.0,46.0,50.3,45.4,34.9,93,78,65,30.39,30.19,11,1,11,0.11
2012-3-13,72.1,59.0,52.2,59.1,51.0,45.0,96,78,40,30.21,30.04,12,2,12,0.14
2012-3-14,76.8,61.1,46.7,53.7,44.5,29.4,95,62,23,30.25,30.12,11,1,11,0.00
2012-3-15,77.0,60.1,48.2,56.1,48.2,43.1,90,67,35,30.29,30.14,17,1,17,0.03
2012-3-16,77.2,60.3,47.6,58.8,49.7,43.7,95,72,37,30.22,30.00,18,1,18,0.23
2012-3-17,76.1,55.7,0.0,68.8,49.5,0.0,96,77,40,30.22,30.04,10,0,10,0.02
2012-3-18,71.5,59.0,52.6,60.1,53.2,49.2,95,82,53,30.30,30.11,7,1,7,0.10
2012-3-19,79.0,62.3,52.0,60.7,51.2,0.0,96,73,28,30.20,30.04,12,1,12,0.00
2012-3-20,79.8,64.2,55.6,58.8,52.9,48.3,92,70,38,30.15,30.04,8,0,8,0.04
2012-3-21,72.3,61.9,54.1,59.5,53.9,50.5,96,77,51,30.22,30.07,11,1,11,0.05
2012-3-22,72.7,62.7,55.7,58.5,54.7,51.3,93,76,53,30.22,30.08,11,1,11,0.00
2012-3-23,67.4,60.4,55.1,67.4,59.6,52.5,100,97,88,30.11,29.88,11,0,11,0.30
2012-3-24,69.3,58.8,50.5,68.1,53.4,39.2,100,85,38,29.89,29.66,17,2,17,0.01
2012-3-25,57.6,52.2,45.8,49.1,45.3,41.5,87,77,70,29.86,29.69,14,2,14,0.01
2012-3-26,72.5,60.1,50.4,47.2,44.2,36.2,81,58,30,30.04,29.85,16,2,16,0.00
2012-3-27,68.1,53.7,43.1,43.9,36.3,26.0,86,55,29,30.24,30.02,10,1,10,0.00
2012-3-28,76.5,60.5,46.4,51.3,44.5,37.8,75,58,35,30.19,29.88,20,3,20,0.00
2012-3-29,77.4,65.9,56.2,52.5,49.6,46.0,75,57,35,29.91,29.80,17,3,18,0.00
2012-3-30,77.4,61.1,52.6,54.5,46.4,32.5,93,64,27,29.96,29.76,14,1,14,1.77
2012-3-31,72.5,61.2,54.8,56.6,52.0,47.1,95,74,44,29.81,29.65,13,2,16,0.00
2012-4-1,75.3,60.9,50.8,53.5,46.8,38.5,92,64,29,29.83,29.72,13,2,19,0.18
2012-4-2,79.9,63.3,49.6,61.2,53.8,47.7,97,74,39,29.86,29.68,12,2,17,0.07
2012-4-3,76.5,61.9,54.5,61.3,55.3,49.1,92,80,52,29.94,29.83,7,1,11,0.10
2012-4-4,77.2,63.0,49.6,65.9,52.4,42.7,96,72,38,29.86,29.62,13,1,13,0.01
2012-4-5,69.4,56.8,46.5,58.2,52.8,45.4,96,87,62,29.76,29.61,7,1,11,0.83
2012-4-6,58.9,49.1,40.5,46.1,41.4,33.5,96,77,52,30.09,29.71,10,2,10,0.08
2012-4-7,67.8,53.0,34.9,53.0,30.7,21.0,90,52,18,30.28,30.08,8,1,12,0.00
2012-4-8,71.8,63.5,54.4,43.1,32.5,20.5,53,32,24,30.09,29.91,18,2,18,0.00
2012-4-9,70.9,57.8,44.3,38.1,27.8,16.8,66,34,15,30.10,29.81,20,3,20,0.00
2012-4-10,65.8,56.8,49.2,36.4,29.5,20.2,47,35,27,29.92,29.79,19,6,24,0.00
2012-4-11,55.0,45.1,37.6,25.2,20.8,16.4,50,38,27,30.11,29.82,14,4,19,0.00
2012-4-12,63.4,44.3,25.6,29.4,21.1,11.1,84,43,17,30.27,29.98,7,1,10,0.00
2012-4-13,65.8,49.5,32.8,33.0,28.8,25.2,81,50,24,30.24,30.10,8,1,9,0.00
2012-4-14,71.1,55.7,42.1,42.7,37.0,29.1,72,51,31,30.30,30.13,14,1,14,0.00
2012-4-15,79.2,62.7,47.0,55.3,48.1,39.2,83,61,38,30.16,30.06,14,1,14,0.00
2012-4-16,79.6,67.9,57.5,57.8,55.4,52.0,89,67,39,30.11,29.99,9,2,13,0.00
2012-4-17,75.1,65.0,55.1,58.1,54.6,50.2,94,70,49,30.14,29.98,13,1,14,0.68
2012-4-18,55.4,49.7,46.7,53.7,48.3,45.6,96,95,93,30.13,30.00,12,3,12,0.94
2012-4-19,66.9,54.5,47.9,54.8,50.3,46.6,96,87,62,30.07,29.90,8,1,8,0.00
2012-4-20,68.4,58.1,52.8,54.2,51.3,49.7,93,79,56,29.98,29.80,5,0,9,0.00
2012-4-21,69.1,60.3,52.3,57.8,53.0,44.6,95,78,58,29.84,29.60,7,1,7,0.09
2012-4-22,59.9,49.3,36.6,51.6,44.7,32.8,94,85,58,29.67,29.47,18,2,18,0.04
2012-4-23,49.2,40.0,34.6,32.8,27.1,20.0,86,62,35,29.75,29.56,21,4,21,0.01
2012-4-24,55.6,46.7,38.8,41.6,27.4,15.0,88,49,24,29.83,29.69,20,4,20,0.09
2012-4-25,69.4,52.7,43.2,67.9,47.6,39.6,95,85,51,29.94,29.79,14,1,14,0.27
2012-4-26,68.3,57.4,52.3,60.3,54.9,50.6,96,92,67,29.89,29.73,10,1,22,0.62
2012-4-27,76.0,64.4,53.3,56.0,52.8,48.1,97,70,38,30.02,29.83,10,1,10,0.01
2012-4-28,69.6,62.0,54.8,53.2,48.1,40.1,71,61,49,30.11,29.96,10,1,11,0.00
2012-4-29,81.2,69.6,55.7,61.8,54.9,44.2,96,61,37,30.12,29.95,10,1,10,0.00
2012-4-30,79.2,73.6,64.5,63.6,59.2,51.2,64,61,51,30.16,29.97,7,0,7,0.00
2012-5-1,83.8,69.6,62.7,67.5,60.5,47.7,94,76,38,30.09,29.95,10,1,10,0.09
2012-5-2,87.6,71.2,61.0,65.9,61.0,48.4,96,74,27,30.09,29.98,7,0,7,0.00
2012-5-3,85.3,70.0,57.0,64.8,58.4,49.8,95,70,32,30.12,29.99,7,0,7,0.00
2012-5-4,81.8,69.7,61.2,62.3,58.5,56.5,92,70,44,30.05,29.89,8,1,10,0.00
2012-5-5,78.1,65.6,58.0,61.8,58.2,55.4,95,79,50,29.94,29.81,13,1,13,0.10
2012-5-6,78.5,67.0,56.0,61.2,58.1,53.9,96,75,52,29.97,29.85,8,0,8,0.00
2012-5-7,73.9,65.8,60.5,59.7,58.2,54.5,92,77,55,29.97,29.86,8,0,8,0.00
2012-5-8,73.9,65.1,59.2,64.7,60.4,56.6,96,85,65,29.89,29.76,7,0,7,0.68
2012-5-9,62.1,57.7,49.9,61.0,54.5,45.2,96,89,75,29.82,29.70,6,0,10,0.13
2012-5-10,66.6,55.1,43.2,46.9,43.2,38.4,96,68,38,29.97,29.73,18,2,18,0.00
2012-5-11,70.1,55.9,41.1,47.9,43.3,36.8,91,66,39,30.18,29.92,6,0,6,0.00
2012-5-12,65.6,56.7,48.6,56.1,50.5,44.3,95,80,64,30.30,30.17,6,0,6,0.01
2012-5-13,58.6,55.7,52.5,57.2,54.3,51.1,96,95,92,30.22,30.04,5,0,5,0.43
2012-5-14,72.7,61.2,55.0,64.3,57.8,53.9,97,89,64,30.04,29.82,7,0,7,0.97
2012-5-15,74.4,61.7,55.7,63.5,58.7,54.6,97,91,62,29.95,29.87,5,0,5,0.09
2012-5-16,76.3,63.8,56.0,62.0,56.8,52.7,97,80,50,29.95,29.84,7,0,7,0.01
2012-5-17,77.0,63.7,51.9,59.0,53.9,48.5,96,74,41,29.97,29.90,7,0,7,0.39
2012-5-18,73.5,62.4,55.0,59.3,57.1,53.6,96,84,57,30.07,29.93,6,0,6,0.24
2012-5-19,75.8,63.1,50.4,60.2,54.5,48.2,95,75,54,30.11,30.01,6,0,6,0.00
2012-5-20,78.8,64.2,52.0,55.6,51.3,46.8,93,67,38,30.11,30.00,3,0,7,0.00
2012-5-21,79.9,63.7,53.3,64.1,54.0,49.9,94,73,42,30.01,29.86,7,0,7,0.38
2012-5-22,69.8,62.4,53.9,63.5,59.1,52.8,96,89,71,29.87,29.76,1,0,2,0.15
2012-5-23,68.4,60.7,56.3,63.6,58.7,54.9,96,93,76,29.91,29.77,6,0,6,0.83
2012-5-24,79.0,65.7,55.1,65.2,58.0,54.0,98,79,44,29.97,29.88,6,0,7,0.00
2012-5-25,83.2,69.5,58.6,66.0,61.6,57.0,96,78,50,30.07,29.97,1,0,2,0.00
2012-5-26,83.0,70.7,59.5,66.6,62.6,57.8,96,77,52,30.11,30.02,1,0,1,0.00
2012-5-27,81.6,70.8,63.2,65.1,63.1,59.5,94,78,51,30.08,30.00,6,0,7,0.00
2012-5-28,82.4,71.2,65.0,65.9,63.5,61.1,94,78,51,30.01,29.90,11,0,11,0.10
2012-5-29,79.2,68.9,62.9,67.7,64.4,61.2,97,86,63,29.93,29.78,7,0,7,0.21
2012-5-30,85.3,69.3,60.2,65.6,57.1,40.3,97,71,23,29.82,29.73,9,0,9,0.00
2012-5-31,83.6,68.4,53.6,61.2,56.6,51.3,95,69,41,29.88,29.72,8,0,8,0.00
2012-6-1,71.1,63.2,55.0,62.4,58.3,48.2,96,85,66,29.79,29.65,12,1,12,0.30
2012-6-2,69.3,58.0,49.9,49.6,45.5,39.7,83,64,36,29.91,29.75,11,1,11,0.00
2012-6-3,77.6,62.1,47.0,54.8,49.5,43.8,93,66,37,29.97,29.81,13,1,13,0.00
2012-6-4,76.0,64.4,55.3,59.3,55.2,51.5,89,73,53,29.82,29.69,13,1,13,0.00
2012-6-5,72.0,62.6,56.3,61.2,57.0,53.1,96,83,55,29.78,29.66,5,0,5,0.16
2012-6-6,63.5,58.8,56.2,58.2,55.9,53.6,96,90,77,29.98,29.78,1,0,6,0.27
2012-6-7,74.7,63.1,54.4,59.0,56.1,52.5,96,80,47,30.02,29.94,1,0,5,0.00
2012-6-8,78.1,64.6,53.6,60.8,56.5,51.9,96,77,51,30.05,29.95,0,0,5,0.00
2012-6-9,81.2,66.9,56.7,63.0,58.1,53.5,93,75,42,30.07,29.96,0,0,6,0.00
2012-6-10,68.1,62.4,57.8,61.1,57.7,53.6,93,85,63,30.11,29.99,3,0,3,0.00
2012-6-11,73.7,65.8,60.2,68.9,63.9,58.1,97,94,81,30.07,29.93,2,0,2,0.42
2012-6-12,83.8,71.8,65.3,70.2,65.8,61.7,97,83,56,29.94,29.80,5,0,5,0.00
2012-6-13,84.0,69.9,60.2,67.4,63.4,58.7,96,81,44,29.94,29.85,0,0,1,0.00
2012-6-14,79.2,69.0,61.8,63.0,58.7,51.1,91,71,49,30.09,29.92,6,0,6,0.00
2012-6-15,73.5,65.3,60.4,63.6,59.8,57.2,95,83,67,30.18,30.03,5,0,5,0.03
2012-6-16,74.9,63.6,54.5,61.9,57.6,53.1,97,82,62,30.24,30.10,5,0,5,0.01
2012-6-17,79.2,66.8,57.5,64.1,58.7,53.1,92,76,55,30.13,29.96,3,0,3,0.01
2012-6-18,81.1,67.8,59.8,69.9,63.3,58.4,96,87,51,30.04,29.94,3,0,3,0.42
2012-6-19,84.0,69.9,58.6,67.1,62.4,57.5,97,79,52,30.13,30.03,7,0,7,0.00
2012-6-20,86.1,71.9,60.5,68.3,63.2,59.4,97,77,47,30.14,30.01,0,0,3,0.00
2012-6-21,84.7,71.3,62.1,70.2,65.2,60.7,96,82,54,30.04,29.88,6,0,6,0.00
2012-6-22,84.3,69.6,63.9,69.4,65.6,62.0,96,88,59,29.89,29.82,2,0,6,0.16
2012-6-23,84.9,70.8,62.3,71.7,65.9,61.2,97,86,56,29.94,29.85,5,0,5,0.67
2012-6-24,85.3,72.5,64.2,71.4,66.9,63.0,97,84,57,29.95,29.83,5,0,5,0.27
2012-6-25,73.7,65.0,62.4,70.8,63.8,61.2,97,96,92,29.85,29.79,0,0,0,0.01
2012-6-26,79.8,68.1,58.7,61.0,57.1,53.5,94,70,46,29.84,29.69,0,0,5,0.00
2012-6-27,84.9,69.3,52.3,59.1,54.4,49.2,91,62,37,29.96,29.83,0,0,0,0.00
2012-6-28,91.0,73.1,54.5,62.5,54.8,48.8,92,58,26,30.02,29.84,7,0,7,0.00
2012-6-29,89.5,81.4,71.3,74.2,60.6,48.2,73,51,30,29.88,29.75,12,0,12,0.00
2012-6-30,97.8,79.6,66.6,72.3,66.4,57.6,88,67,28,29.87,29.78,3,0,3,0.00
2012-7-1,96.6,79.5,67.8,73.4,67.9,61.6,92,71,38,29.93,29.81,3,0,3,0.00
2012-7-2,86.1,73.6,62.0,69.0,64.7,60.4,97,75,50,30.08,29.89,7,0,8,0.85
2012-7-3,88.2,71.4,63.5,70.6,65.3,62.0,96,83,45,30.00,29.92,7,0,7,0.13
2012-7-4,88.2,72.7,63.4,70.3,66.3,62.2,97,82,52,29.99,29.91,1,0,5,0.01
2012-7-5,89.3,72.7,65.6,72.6,66.1,58.9,96,81,52,29.97,29.87,3,0,11,0.03
2012-7-6,89.5,74.2,61.2,71.3,65.0,58.9,95,75,50,29.98,29.88,0,0,5,0.00
2012-7-7,92.9,77.3,65.5,73.6,68.6,64.0,97,77,44,29.99,29.89,0,0,0,0.00
2012-7-8,93.2,78.3,68.1,73.8,70.1,66.2,95,79,47,29.94,29.83,5,0,12,0.18
2012-7-9,88.0,74.6,66.6,72.0,68.4,65.4,97,82,56,29.88,29.83,5,0,5,0.00
2012-7-10,82.4,71.6,66.0,71.7,67.9,64.6,96,89,62,29.96,29.84,3,0,3,0.04
2012-7-11,68.4,65.5,63.7,67.2,64.5,62.8,98,96,95,30.09,29.95,5,0,5,0.70
2012-7-12,64.3,63.0,60.9,63.7,62.4,60.3,98,98,97,30.12,30.04,5,0,5,0.12
2012-7-13,73.2,67.8,63.9,71.6,66.7,63.3,99,96,88,30.13,30.04,3,0,3,0.47
2012-7-14,80.1,71.6,67.6,70.7,68.3,66.3,98,90,67,30.16,30.05,8,0,8,0.47
2012-7-15,84.5,71.8,65.5,71.2,67.5,64.6,98,87,61,30.14,30.02,1,0,1,0.00
2012-7-16,87.8,74.3,64.2,72.2,66.7,62.5,98,79,48,30.07,29.91,6,0,6,0.00
2012-7-17,84.0,70.7,63.4,72.5,66.5,62.2,97,87,65,29.97,29.88,0,0,1,0.00
2012-7-18,86.3,70.4,62.7,74.1,67.0,61.5,98,90,58,29.98,29.88,5,0,5,0.00
2012-7-19,88.0,74.5,64.2,73.6,68.4,63.3,98,83,52,30.00,29.87,6,0,6,0.00
2012-7-20,75.6,69.8,66.0,70.2,67.0,65.1,98,91,73,29.94,29.82,3,0,3,0.00
2012-7-21,82.8,71.8,66.3,73.2,68.2,64.8,98,89,63,30.01,29.88,10,0,10,0.00
2012-7-22,87.6,73.6,64.0,73.6,67.8,63.1,98,84,52,30.13,30.01,1,0,3,0.00
2012-7-23,85.7,73.0,64.8,73.6,69.0,64.2,99,89,59,30.16,30.01,6,0,6,0.00
2012-7-24,84.0,78.3,68.4,71.5,69.3,67.1,97,75,61,30.01,29.84,9,1,12,0.01
2012-7-25,84.0,84.0,84.0,70.1,70.1,70.1,63,63,63,30.05,29.84,1,1,1,0.00
2012-7-26,84.0,84.0,84.0,70.1,70.1,70.1,63,63,63,29.98,29.85,1,1,1,0.00
2012-7-27,84.0,84.0,84.0,70.1,70.1,70.1,63,63,63,29.99,29.89,1,1,1,0.00
2012-7-28,84.0,84.0,84.0,70.1,70.1,70.1,63,63,63,30.04,29.96,1,1,1,0.00
2012-7-29,84.0,84.0,84.0,70.1,70.1,70.1,63,63,63,30.05,29.96,1,1,1,0.00
2012-7-30,84.0,84.0,84.0,70.1,70.1,70.1,63,63,63,30.03,29.95,1,1,1,0.00
2012-7-31,84.0,84.0,84.0,70.1,70.1,70.1,63,63,63,30.01,29.91,1,1,1,0.00
2012-8-1,84.0,84.0,84.0,70.1,70.1,70.1,63,63,63,29.95,29.87,1,1,1,0.00
2012-8-2,84.0,84.0,84.0,70.1,70.1,70.1,63,63,63,29.96,29.89,1,1,1,0.00
2012-8-3,84.0,84.0,84.0,70.1,70.1,70.1,63,63,63,30.07,29.92,1,1,1,0.00
2012-8-4,84.0,84.0,84.0,70.1,70.1,70.1,63,63,63,30.20,30.05,1,1,1,0.00
2012-8-5,84.0,84.0,84.0,70.1,70.1,70.1,63,63,63,30.23,30.12,1,1,1,0.00
2012-8-6,84.0,84.0,84.0,70.1,70.1,70.1,63,63,63,30.14,30.04,1,1,1,0.00
2012-8-7,84.0,84.0,84.0,70.1,70.1,70.1,63,63,63,30.06,29.98,1,1,1,0.00
2012-8-8,84.0,84.0,84.0,70.1,70.1,70.1,63,63,63,30.03,29.97,1,1,1,0.00
2012-8-9,84.0,84.0,84.0,70.1,70.1,70.1,63,63,63,30.02,29.94,1,1,1,0.00
2012-8-10,0.0,0.0,0.0,0.0,0.0,0.0,0,0,100,29.88,29.80,0,0,0,0.00
2012-8-11,0.0,0.0,0.0,0.0,0.0,0.0,0,0,100,29.96,29.85,0,0,0,0.00
2012-8-12,0.0,0.0,0.0,0.0,0.0,0.0,0,0,100,30.04,29.95,0,0,0,0.00
2012-8-13,0.0,0.0,0.0,0.0,0.0,0.0,0,0,100,30.05,29.94,0,0,0,0.00
2012-8-14,0.0,0.0,0.0,0.0,0.0,0.0,0,0,100,29.99,29.87,0,0,0,0.00
2012-8-15,0.0,0.0,0.0,0.0,0.0,0.0,0,0,100,30.01,29.91,0,0,0,0.00
2012-8-16,0.0,0.0,0.0,0.0,0.0,0.0,0,0,100,30.05,29.96,0,0,0,0.00
2012-8-17,0.0,0.0,0.0,0.0,0.0,0.0,0,0,100,30.03,29.87,0,0,0,0.00
2012-8-18,0.0,0.0,0.0,0.0,0.0,0.0,0,0,100,29.94,29.86,0,0,0,0.00
2012-8-19,74.7,33.5,0.0,65.1,30.0,0.0,93,38,62,29.90,29.73,0,0,0,0.01
2012-8-20,77.4,66.0,58.0,61.5,58.3,54.6,96,79,46,29.95,29.79,2,0,5,0.01
2012-8-21,69.1,57.7,53.8,61.0,55.3,52.1,96,92,70,30.05,29.93,0,0,0,0.02
2012-8-22,76.5,66.5,59.3,63.9,58.8,54.8,97,78,58,30.11,29.95,1,0,4,0.01
2012-8-23,77.0,66.5,61.2,65.5,61.4,59.3,96,85,59,30.11,30.00,5,0,5,0.01
2012-8-24,78.1,65.6,58.3,65.9,60.1,56.6,95,84,53,30.12,30.04,6,0,6,0.14
2012-8-25,76.8,65.5,56.6,66.0,60.9,55.2,96,86,65,30.14,30.03,2,0,4,0.01
2012-8-26,78.6,67.2,56.5,67.3,61.3,54.5,96,83,59,30.12,30.04,0,0,2,0.01
2012-8-27,81.2,69.7,59.3,66.9,62.1,56.7,96,79,48,30.12,29.97,5,0,5,0.00
2012-8-28,82.2,69.0,61.2,68.5,63.5,59.0,95,84,52,30.00,29.89,0,0,0,0.00
2012-8-29,79.0,69.0,62.7,70.3,65.3,61.0,95,89,67,29.95,29.87,1,0,1,0.19
2012-8-30,78.6,69.9,64.2,71.4,67.0,62.7,96,91,72,30.09,29.93,2,0,2,0.33
2012-8-31,87.2,73.9,67.1,70.2,66.7,62.5,95,80,45,30.17,30.05,2,0,5,0.00
2012-9-1,84.3,73.1,66.4,71.2,67.3,64.3,95,83,58,30.11,29.99,3,0,3,0.01
2012-9-2,82.2,72.2,66.0,71.5,67.6,64.2,95,86,62,30.01,29.87,5,0,5,0.27
2012-9-3,74.7,70.3,66.9,70.9,67.9,64.8,95,92,82,29.95,29.85,10,0,10,0.32
2012-9-4,71.3,68.5,66.6,69.8,67.0,64.8,96,95,93,29.91,29.84,0,0,3,0.13
2012-9-5,79.2,71.9,67.1,70.2,67.5,65.5,95,87,70,29.88,29.79,0,0,1,0.05
2012-9-6,81.4,71.6,65.5,67.4,65.6,62.3,94,82,57,29.92,29.79,7,0,7,0.03
2012-9-7,82.6,70.2,61.0,69.1,64.7,59.3,96,84,57,29.94,29.79,2,0,2,0.00
2012-9-8,80.5,67.6,58.4,68.3,62.5,56.1,95,85,56,29.80,29.66,8,0,9,0.05
2012-9-9,73.2,60.3,47.7,56.7,52.0,45.5,95,77,44,30.01,29.79,3,0,7,0.01
2012-9-10,72.8,60.2,48.3,57.0,52.0,46.6,96,77,45,30.12,29.98,0,0,0,0.00
2012-9-11,72.7,62.0,55.6,59.3,53.6,47.4,93,74,55,30.26,30.09,5,0,5,0.00
2012-9-12,74.7,63.0,54.1,62.2,56.4,52.7,96,81,54,30.30,30.20,6,0,6,0.00
2012-9-13,71.8,61.2,53.5,58.1,54.5,51.3,95,80,50,30.31,30.20,5,0,5,0.00
2012-9-14,74.4,63.2,55.6,62.1,56.6,53.1,94,80,50,30.24,30.11,0,0,0,0.00
2012-9-15,78.1,64.1,54.1,62.3,57.7,52.5,96,82,50,30.19,30.05,0,0,0,0.10
2012-9-16,73.0,64.5,61.0,65.3,62.0,59.6,96,92,68,30.08,29.99,2,0,2,0.11
2012-9-17,66.0,63.4,60.5,64.5,62.1,59.1,96,95,94,30.03,29.76,10,0,10,0.02
2012-9-18,66.1,63.6,58.3,64.6,61.9,55.1,95,94,90,29.84,29.63,21,0,21,0.02
2012-9-19,70.3,59.0,49.9,58.7,53.4,47.9,94,83,58,30.07,29.84,3,0,7,0.10
2012-9-20,72.0,62.0,56.0,59.6,55.7,52.8,93,81,52,30.10,29.97,6,0,6,0.04
2012-9-21,74.7,62.1,51.3,61.8,55.5,49.6,96,81,46,30.06,29.93,0,0,3,0.01
2012-9-22,76.7,65.2,56.0,59.5,55.8,48.6,95,74,46,29.99,29.84,12,1,12,0.01
2012-9-23,68.8,58.0,46.8,48.7,40.6,25.3,89,58,20,30.11,29.97,8,0,8,0.01
2012-9-24,66.8,52.4,38.3,47.7,42.0,35.6,93,71,36,30.23,30.11,0,0,0,0.00
2012-9-25,72.5,59.4,44.6,59.7,52.3,42.7,96,79,46,30.22,30.13,5,0,5,0.01
2012-9-26,78.6,63.2,52.6,63.6,57.6,50.6,96,83,57,30.17,30.08,0,0,0,0.01
2012-9-27,75.3,62.6,52.2,62.2,55.8,50.8,96,81,50,30.18,30.06,5,0,5,0.01
2012-9-28,77.2,63.2,55.4,65.1,58.5,53.7,96,86,55,30.09,29.95,8,0,8,0.00
2012-9-29,66.6,60.8,55.9,63.5,58.2,53.3,96,91,75,29.98,29.81,4,0,6,0.01
2012-9-30,66.0,58.0,50.1,56.0,52.9,48.4,96,84,62,29.90,29.79,0,0,0,0.00
2012-10-1,57.5,55.1,54.1,54.9,53.7,52.7,96,95,89,29.83,29.74,5,0,10,0.01
2012-10-2,69.9,62.2,55.7,65.6,59.5,54.6,97,91,69,29.93,29.71,12,0,12,0.01
2012-10-3,71.8,62.2,57.3,60.9,57.1,51.1,96,85,49,30.14,29.92,1,0,1,0.00
2012-10-4,71.5,61.2,52.6,56.7,54.1,50.3,95,79,49,30.21,30.11,7,0,7,0.01
2012-10-5,72.0,58.6,47.9,56.9,52.2,46.5,96,81,50,30.21,29.99,5,0,5,0.01
2012-10-6,71.6,59.3,50.7,59.0,53.9,49.3,96,83,60,29.99,29.86,5,0,10,0.00
2012-10-7,55.7,51.0,44.2,54.6,49.0,41.8,96,93,85,30.10,29.88,6,0,6,0.01
2012-10-8,45.7,43.7,42.3,43.2,40.6,36.3,96,89,76,30.19,30.07,5,0,6,0.00
2012-10-9,54.7,46.7,42.1,47.3,44.1,41.0,96,91,74,30.15,30.04,1,0,3,0.00
2012-10-10,59.6,51.3,44.1,49.3,45.6,42.2,95,82,65,30.10,30.01,11,1,14,0.00
2012-10-11,64.0,50.1,36.9,49.5,42.7,34.5,94,77,48,30.25,30.09,12,0,12,0.01
2012-10-12,67.1,54.4,45.7,53.9,49.4,43.8,96,84,61,30.28,30.14,8,0,8,0.00
2012-10-13,59.3,50.8,43.8,47.7,43.6,36.8,94,77,58,30.42,30.26,8,0,8,0.01
2012-10-14,62.7,55.0,46.1,57.8,51.9,44.0,95,89,81,30.31,29.97,7,0,7,0.00
2012-10-15,64.0,58.7,50.5,58.4,50.8,40.0,95,77,51,29.97,29.74,14,1,14,0.01
2012-10-16,63.4,52.8,44.2,43.0,40.1,34.4,86,64,36,29.96,29.80,16,0,16,0.00
2012-10-17,65.0,51.1,40.3,46.5,42.4,38.4,96,75,41,29.99,29.84,8,0,8,0.00
2012-10-18,62.4,54.6,46.1,56.0,50.4,42.5,94,86,75,29.85,29.72,2,0,8,0.01
2012-10-19,63.2,51.7,40.3,49.4,36.9,26.6,94,62,28,29.77,29.64,8,0,8,0.00
2012-10-20,60.2,50.3,41.9,41.8,39.0,35.6,82,66,47,29.94,29.72,10,1,13,0.01
2012-10-21,65.6,52.6,42.8,43.7,40.6,38.7,88,66,41,30.15,29.94,7,1,11,0.00
2012-10-22,72.3,55.0,42.9,50.5,44.5,38.1,91,71,35,30.24,30.10,0,0,5,0.00
2012-10-23,73.5,58.2,48.0,53.1,48.3,43.0,94,73,37,30.18,30.03,6,0,6,0.00
2012-10-24,75.3,58.5,47.1,54.6,48.5,39.6,95,73,29,30.19,30.03,7,0,7,0.00
2012-10-25,70.4,58.5,49.1,53.4,49.4,44.7,89,73,50,30.12,30.03,5,0,7,0.01
2012-10-26,71.3,62.1,55.9,56.4,53.3,48.7,90,74,46,30.07,29.89,5,0,8,0.00
2012-10-27,66.6,56.0,48.8,54.4,50.8,46.0,95,83,62,29.91,29.71,6,0,6,0.00
2012-10-28,53.6,45.5,38.2,46.0,41.0,31.6,92,85,71,29.77,29.70,18,1,18,0.01
2012-10-29,39.9,36.7,32.5,32.9,30.5,29.1,89,78,71,29.72,29.54,33,8,33,0.00
2012-10-30,35.3,33.9,31.9,31.1,30.1,28.5,90,86,82,29.69,29.48,26,5,26,0.00
2012-10-31,48.9,39.5,34.1,34.8,29.6,22.6,87,69,46,29.80,29.53,20,4,26,0.00
2012-11-1,50.1,42.1,36.2,29.8,24.2,14.9,73,51,29,29.89,29.76,12,2,17,0.00
2012-11-2,59.2,46.9,34.9,40.4,29.6,16.1,71,52,33,29.96,29.79,21,2,21,0.00
2012-11-3,68.9,53.1,37.8,45.1,31.0,14.1,77,47,17,30.05,29.93,14,1,14,0.00
2012-11-4,64.5,52.7,43.1,49.6,41.3,35.8,79,65,50,29.96,29.85,16,1,16,0.00
2012-11-5,55.0,43.9,32.7,37.0,30.7,18.7,92,64,24,30.06,29.88,11,1,11,0.00
2012-11-6,43.2,36.0,32.9,34.4,31.9,28.8,94,86,62,30.08,29.94,8,1,8,0.00
2012-11-7,43.3,38.6,35.2,40.6,36.3,33.7,95,92,82,29.99,29.84,5,0,7,0.00
2012-11-8,53.2,42.4,34.4,35.3,31.0,25.9,88,66,38,30.18,29.98,16,1,16,0.00
2012-11-9,62.0,44.0,29.5,34.2,27.4,18.0,92,59,19,30.32,30.15,8,0,8,0.00
2012-11-10,69.4,50.0,36.2,34.8,31.1,27.4,79,53,21,30.37,30.23,6,0,6,0.00
2012-11-11,64.2,53.0,42.2,50.3,40.0,31.4,79,62,37,30.43,30.30,13,0,13,0.00
2012-11-12,59.6,56.8,44.1,55.2,51.9,41.7,92,84,79,30.31,30.11,16,1,16,0.00
2012-11-13,49.4,39.9,29.7,41.7,33.2,26.9,91,78,52,30.42,30.17,12,1,12,0.00
2012-11-14,45.5,36.6,29.4,28.5,26.4,22.9,89,67,48,30.49,30.31,13,2,13,5.92
2012-11-15,52.8,39.2,31.5,37.6,31.1,26.0,89,74,52,30.34,30.18,11,1,11,0.07
2012-11-16,56.9,40.0,29.3,38.4,29.1,21.6,95,70,26,30.38,30.24,6,0,6,4.91
2012-11-17,52.9,43.3,35.6,28.4,22.5,11.5,72,47,20,30.47,30.33,14,2,14,0.01
2012-11-18,51.6,43.7,37.0,39.8,34.0,19.0,80,69,42,30.44,30.34,16,2,16,0.00
2012-11-19,59.5,47.6,41.1,48.3,42.5,35.8,94,83,63,30.35,30.16,7,0,7,0.00
2012-11-20,60.5,46.8,38.9,43.3,36.1,28.9,96,71,34,30.18,30.01,12,0,12,0.00
2012-11-21,61.8,48.1,37.5,38.6,34.5,30.9,85,62,38,30.17,30.05,7,0,7,0.00
2012-11-22,63.1,46.1,34.4,36.4,32.7,30.6,88,63,31,30.25,30.12,6,0,6,0.00
2012-11-23,60.5,46.2,34.1,44.9,35.3,29.3,91,68,41,30.17,29.89,20,2,20,0.00
2012-11-24,41.3,35.9,30.7,29.1,23.1,16.4,72,60,40,30.01,29.89,17,3,17,0.00
2012-11-25,43.6,31.6,29.4,21.5,19.4,11.5,69,61,29,30.17,30.12,7,0,12,0.00
2012-11-28,41.1,39.8,38.9,35.9,35.5,34.9,89,84,79,30.31,30.29,0,0,0,0.00
2012-11-29,58.6,46.6,35.5,45.1,39.8,33.1,96,79,50,30.41,30.22,6,0,6,0.01
2012-12-1,60.4,50.8,42.6,41.5,39.8,38.7,90,68,46,30.36,30.21,7,0,7,0.00
2012-12-2,63.4,51.7,42.1,49.4,44.3,39.7,94,78,48,30.35,30.19,12,1,12,0.00
2012-12-3,69.6,52.8,42.8,49.7,44.8,40.6,95,77,47,30.31,30.17,2,0,8,0.00
2012-12-4,66.3,53.5,44.9,51.4,45.1,42.1,95,75,47,30.30,30.12,11,0,11,0.00
2012-12-5,58.9,51.9,40.5,51.8,46.3,34.2,92,81,69,30.18,30.07,7,0,7,0.01
2012-12-6,48.5,43.9,38.3,37.4,34.3,24.2,81,69,46,30.27,30.14,12,1,12,0.03
2012-12-7,59.5,47.5,40.9,52.2,42.3,30.9,95,83,65,30.17,29.94,7,0,7,0.03
2012-12-8,65.3,52.5,43.1,53.4,47.1,41.5,96,84,51,30.02,29.91,10,0,10,0.00
2012-12-9,63.7,55.3,48.5,54.9,50.3,46.5,95,84,64,30.06,29.91,13,0,13,0.01
2012-12-10,56.7,54.8,50.4,54.4,52.1,48.0,95,91,83,29.91,29.62,13,0,13,0.18
2012-12-11,49.9,39.7,35.6,48.0,35.0,31.7,93,83,71,30.00,29.69,13,2,13,0.00
2012-12-12,39.2,36.5,30.7,33.2,30.5,28.3,95,79,68,30.28,30.16,10,1,10,0.00
2012-12-13,48.2,37.9,30.4,29.3,22.9,13.4,75,57,30,30.37,30.25,10,1,10,0.00
2012-12-14,58.0,38.6,26.4,34.3,26.5,20.7,85,64,26,30.41,30.21,5,0,5,0.00
2012-12-15,56.2,45.4,35.6,37.4,29.3,22.5,75,55,29,30.24,30.06,6,0,6,0.00
2012-12-16,51.4,48.5,42.8,50.3,46.3,38.8,96,92,68,30.03,29.86,3,0,8,0.54
2012-12-17,50.4,48.3,45.8,49.3,47.1,43.7,96,96,92,29.87,29.62,11,0,11,0.08
2012-12-18,47.0,42.5,31.2,44.0,32.7,20.1,94,70,39,29.98,29.64,22,3,22,0.07
2012-12-19,59.9,45.9,30.3,39.1,34.2,24.8,84,65,42,30.07,29.93,13,2,13,0.00
2012-12-20,46.1,41.9,34.1,43.8,37.3,25.6,96,84,72,30.06,29.53,14,1,19,0.50
2012-12-21,34.1,30.1,27.2,26.0,20.4,16.4,77,67,58,29.90,29.60,28,10,28,0.00
2012-12-22,45.7,38.1,29.3,9.6,4.2,-1.8,43,24,17,30.19,30.06,20,3,20,0.00
2012-12-23,48.2,35.9,24.7,32.2,19.0,9.8,74,51,35,30.18,30.02,5,0,5,0.00
2012-12-24,47.7,43.4,39.3,46.6,41.2,32.2,96,92,72,30.02,29.81,8,0,8,0.48
2012-12-25,48.5,42.0,36.2,43.0,38.3,34.4,96,87,72,30.03,29.88,17,2,17,0.09
2012-12-26,40.1,36.0,28.7,38.8,33.8,24.0,96,91,77,29.89,29.44,26,6,28,1.59
2012-12-27,34.4,29.5,25.4,27.7,24.4,22.9,91,81,72,30.10,29.73,30,4,30,0.00
2012-12-28,43.5,32.4,23.2,33.9,27.4,21.2,94,83,59,30.15,29.93,8,0,8,0.02
2012-12-29,39.3,33.6,28.7,36.4,30.0,21.9,96,87,74,29.94,29.75,35,3,35,0.13
2012-12-30,37.2,28.5,23.9,21.8,18.3,14.2,80,66,51,30.44,30.04,11,3,27,0.00
2012-12-31,48.5,37.5,23.2,26.8,22.0,16.1,81,56,28,30.41,30.08,5,0,5,0.00
2013-1-1,43.5,40.7,37.6,42.4,35.7,23.2,96,83,53,30.10,29.92,5,0,5,0.40